sensor_id;sensor_type;location;lat;lon;timestamp;P1;durP1;ratioP1;P2;durP2;ratioP2
79646;SDS011;69119;41.718;21.786;2024-03-29T00:04:39;12.30;;;5.53;;
79646;SDS011;69119;41.718;21.786;2024-03-29T00:07:05;11.38;;;4.35;;
79646;SDS011;69119;41.718;21.786;2024-03-29T00:09:31;9.82;;;2.80;;
79646;SDS011;69119;41.718;21.786;2024-03-29T00:11:57;11.98;;;4.18;;
79646;SDS011;69119;41.718;21.786;2024-03-29T00:14:23;12.95;;;5.18;;
79646;SDS011;69119;41.718;21.786;2024-03-29T00:16:51;15.32;;;5.82;;
79646;SDS011;69119;41.718;21.786;2024-03-29T00:19:17;13.65;;;5.18;;
79646;SDS011;69119;41.718;21.786;2024-03-29T00:21:43;8.40;;;4.25;;
79646;SDS011;69119;41.718;21.786;2024-03-29T00:24:09;8.88;;;3.75;;
79646;SDS011;69119;41.718;21.786;2024-03-29T00:26:35;9.63;;;4.15;;
79646;SDS011;69119;41.718;21.786;2024-03-29T00:29:01;9.90;;;4.47;;
79646;SDS011;69119;41.718;21.786;2024-03-29T00:31:28;8.55;;;3.47;;
79646;SDS011;69119;41.718;21.786;2024-03-29T00:33:54;7.75;;;3.22;;
79646;SDS011;69119;41.718;21.786;2024-03-29T00:36:20;7.65;;;4.45;;
79646;SDS011;69119;41.718;21.786;2024-03-29T00:38:46;10.15;;;3.88;;
79646;SDS011;69119;41.718;21.786;2024-03-29T00:41:12;11.23;;;4.40;;
79646;SDS011;69119;41.718;21.786;2024-03-29T00:43:38;11.80;;;4.38;;
79646;SDS011;69119;41.718;21.786;2024-03-29T00:46:04;10.27;;;4.18;;
79646;SDS011;69119;41.718;21.786;2024-03-29T00:48:30;7.45;;;3.67;;
79646;SDS011;69119;41.718;21.786;2024-03-29T00:50:57;9.38;;;2.63;;
79646;SDS011;69119;41.718;21.786;2024-03-29T00:53:23;8.30;;;2.38;;
79646;SDS011;69119;41.718;21.786;2024-03-29T00:55:49;8.98;;;3.63;;
79646;SDS011;69119;41.718;21.786;2024-03-29T00:58:15;7.80;;;3.72;;
79646;SDS011;69119;41.718;21.786;2024-03-29T01:00:41;7.32;;;3.70;;
79646;SDS011;69119;41.718;21.786;2024-03-29T01:03:07;9.13;;;3.58;;
79646;SDS011;69119;41.718;21.786;2024-03-29T01:05:33;8.98;;;2.88;;
79646;SDS011;69119;41.718;21.786;2024-03-29T01:07:59;7.00;;;3.60;;
79646;SDS011;69119;41.718;21.786;2024-03-29T01:10:25;7.57;;;3.60;;
79646;SDS011;69119;41.718;21.786;2024-03-29T01:12:51;7.85;;;2.83;;
79646;SDS011;69119;41.718;21.786;2024-03-29T01:15:18;10.48;;;3.67;;
79646;SDS011;69119;41.718;21.786;2024-03-29T01:17:44;7.00;;;3.50;;
79646;SDS011;69119;41.718;21.786;2024-03-29T01:20:10;6.38;;;3.17;;
79646;SDS011;69119;41.718;21.786;2024-03-29T01:27:33;9.73;;;3.30;;
79646;SDS011;69119;41.718;21.786;2024-03-29T01:29:59;8.95;;;2.33;;
79646;SDS011;69119;41.718;21.786;2024-03-29T01:32:25;6.63;;;2.95;;
79646;SDS011;69119;41.718;21.786;2024-03-29T01:34:51;9.30;;;3.70;;
79646;SDS011;69119;41.718;21.786;2024-03-29T01:37:17;7.15;;;2.60;;
79646;SDS011;69119;41.718;21.786;2024-03-29T01:39:43;8.57;;;4.22;;
79646;SDS011;69119;41.718;21.786;2024-03-29T01:42:09;6.80;;;2.28;;
79646;SDS011;69119;41.718;21.786;2024-03-29T01:44:36;6.65;;;2.78;;
79646;SDS011;69119;41.718;21.786;2024-03-29T01:47:02;7.50;;;2.88;;
79646;SDS011;69119;41.718;21.786;2024-03-29T01:49:29;8.25;;;2.65;;
79646;SDS011;69119;41.718;21.786;2024-03-29T01:51:55;6.25;;;2.28;;
79646;SDS011;69119;41.718;21.786;2024-03-29T01:54:21;8.50;;;4.45;;
79646;SDS011;69119;41.718;21.786;2024-03-29T01:56:47;5.82;;;2.58;;
79646;SDS011;69119;41.718;21.786;2024-03-29T01:59:14;9.20;;;4.32;;
79646;SDS011;69119;41.718;21.786;2024-03-29T02:01:41;8.77;;;3.15;;
79646;SDS011;69119;41.718;21.786;2024-03-29T02:04:08;6.00;;;2.97;;
79646;SDS011;69119;41.718;21.786;2024-03-29T02:09:01;6.68;;;3.17;;
79646;SDS011;69119;41.718;21.786;2024-03-29T02:11:28;9.45;;;4.25;;
79646;SDS011;69119;41.718;21.786;2024-03-29T02:13:55;7.75;;;2.80;;
79646;SDS011;69119;41.718;21.786;2024-03-29T02:16:21;7.15;;;3.60;;
79646;SDS011;69119;41.718;21.786;2024-03-29T02:18:47;8.48;;;3.03;;
79646;SDS011;69119;41.718;21.786;2024-03-29T02:21:14;7.88;;;3.53;;
79646;SDS011;69119;41.718;21.786;2024-03-29T02:23:40;7.07;;;3.55;;
79646;SDS011;69119;41.718;21.786;2024-03-29T02:26:09;7.18;;;5.35;;
79646;SDS011;69119;41.718;21.786;2024-03-29T02:28:35;6.50;;;2.53;;
79646;SDS011;69119;41.718;21.786;2024-03-29T02:31:01;6.72;;;3.35;;
79646;SDS011;69119;41.718;21.786;2024-03-29T02:33:28;7.38;;;5.05;;
79646;SDS011;69119;41.718;21.786;2024-03-29T02:35:54;6.25;;;2.63;;
79646;SDS011;69119;41.718;21.786;2024-03-29T02:38:20;6.57;;;2.25;;
79646;SDS011;69119;41.718;21.786;2024-03-29T02:40:46;9.07;;;3.97;;
79646;SDS011;69119;41.718;21.786;2024-03-29T02:43:12;7.53;;;3.28;;
79646;SDS011;69119;41.718;21.786;2024-03-29T02:45:38;6.47;;;2.58;;
79646;SDS011;69119;41.718;21.786;2024-03-29T02:48:05;8.98;;;5.03;;
79646;SDS011;69119;41.718;21.786;2024-03-29T02:50:31;8.52;;;3.03;;
79646;SDS011;69119;41.718;21.786;2024-03-29T02:52:57;6.88;;;2.40;;
79646;SDS011;69119;41.718;21.786;2024-03-29T02:55:23;7.65;;;3.13;;
79646;SDS011;69119;41.718;21.786;2024-03-29T02:57:49;6.50;;;3.22;;
79646;SDS011;69119;41.718;21.786;2024-03-29T03:00:15;7.05;;;2.88;;
79646;SDS011;69119;41.718;21.786;2024-03-29T03:02:41;7.05;;;2.55;;
79646;SDS011;69119;41.718;21.786;2024-03-29T03:05:08;6.75;;;2.70;;
79646;SDS011;69119;41.718;21.786;2024-03-29T03:07:34;8.05;;;2.85;;
79646;SDS011;69119;41.718;21.786;2024-03-29T03:10:19;6.53;;;2.25;;
79646;SDS011;69119;41.718;21.786;2024-03-29T03:13:04;6.50;;;2.47;;
79646;SDS011;69119;41.718;21.786;2024-03-29T03:15:30;9.18;;;3.05;;
79646;SDS011;69119;41.718;21.786;2024-03-29T03:17:56;5.70;;;2.38;;
79646;SDS011;69119;41.718;21.786;2024-03-29T03:20:22;8.13;;;3.50;;
79646;SDS011;69119;41.718;21.786;2024-03-29T03:22:52;6.88;;;2.83;;
79646;SDS011;69119;41.718;21.786;2024-03-29T03:25:20;5.45;;;2.25;;
79646;SDS011;69119;41.718;21.786;2024-03-29T03:27:47;3.00;;;1.30;;
79646;SDS011;69119;41.718;21.786;2024-03-29T03:30:13;4.35;;;1.70;;
79646;SDS011;69119;41.718;21.786;2024-03-29T03:32:39;4.75;;;2.58;;
79646;SDS011;69119;41.718;21.786;2024-03-29T03:35:05;6.22;;;2.45;;
79646;SDS011;69119;41.718;21.786;2024-03-29T03:37:31;5.68;;;2.78;;
79646;SDS011;69119;41.718;21.786;2024-03-29T03:39:57;6.30;;;2.35;;
79646;SDS011;69119;41.718;21.786;2024-03-29T03:42:23;8.95;;;3.03;;
79646;SDS011;69119;41.718;21.786;2024-03-29T03:44:49;5.93;;;2.47;;
79646;SDS011;69119;41.718;21.786;2024-03-29T03:47:15;6.95;;;2.30;;
79646;SDS011;69119;41.718;21.786;2024-03-29T03:49:41;5.65;;;2.70;;
79646;SDS011;69119;41.718;21.786;2024-03-29T03:52:07;7.18;;;2.22;;
79646;SDS011;69119;41.718;21.786;2024-03-29T03:54:33;4.97;;;2.28;;
79646;SDS011;69119;41.718;21.786;2024-03-29T03:56:59;6.30;;;1.90;;
79646;SDS011;69119;41.718;21.786;2024-03-29T03:59:25;6.18;;;1.92;;
79646;SDS011;69119;41.718;21.786;2024-03-29T04:01:51;7.45;;;2.50;;
79646;SDS011;69119;41.718;21.786;2024-03-29T04:04:19;6.70;;;1.83;;
79646;SDS011;69119;41.718;21.786;2024-03-29T04:06:45;8.07;;;3.05;;
79646;SDS011;69119;41.718;21.786;2024-03-29T04:09:14;6.75;;;2.95;;
79646;SDS011;69119;41.718;21.786;2024-03-29T04:11:43;5.32;;;1.73;;
79646;SDS011;69119;41.718;21.786;2024-03-29T04:14:09;6.95;;;2.58;;
79646;SDS011;69119;41.718;21.786;2024-03-29T04:16:35;19.00;;;15.48;;
79646;SDS011;69119;41.718;21.786;2024-03-29T04:19:01;12.88;;;7.80;;
79646;SDS011;69119;41.718;21.786;2024-03-29T04:21:27;8.35;;;3.80;;
79646;SDS011;69119;41.718;21.786;2024-03-29T04:23:53;7.63;;;3.13;;
79646;SDS011;69119;41.718;21.786;2024-03-29T04:26:19;5.93;;;2.75;;
79646;SDS011;69119;41.718;21.786;2024-03-29T04:28:45;6.13;;;2.95;;
79646;SDS011;69119;41.718;21.786;2024-03-29T04:31:11;9.07;;;2.17;;
79646;SDS011;69119;41.718;21.786;2024-03-29T04:33:37;9.15;;;3.25;;
79646;SDS011;69119;41.718;21.786;2024-03-29T04:36:04;6.35;;;3.38;;
79646;SDS011;69119;41.718;21.786;2024-03-29T04:38:30;6.30;;;1.98;;
79646;SDS011;69119;41.718;21.786;2024-03-29T04:40:57;5.38;;;1.83;;
79646;SDS011;69119;41.718;21.786;2024-03-29T04:43:24;9.00;;;2.72;;
79646;SDS011;69119;41.718;21.786;2024-03-29T04:53:08;10.75;;;4.65;;
79646;SDS011;69119;41.718;21.786;2024-03-29T04:55:34;9.25;;;4.70;;
79646;SDS011;69119;41.718;21.786;2024-03-29T04:58:01;9.20;;;4.43;;
79646;SDS011;69119;41.718;21.786;2024-03-29T05:00:27;10.90;;;4.75;;
79646;SDS011;69119;41.718;21.786;2024-03-29T05:02:53;11.40;;;4.32;;
79646;SDS011;69119;41.718;21.786;2024-03-29T05:05:19;8.52;;;3.83;;
79646;SDS011;69119;41.718;21.786;2024-03-29T05:07:45;7.72;;;3.15;;
79646;SDS011;69119;41.718;21.786;2024-03-29T05:10:11;9.40;;;3.78;;
79646;SDS011;69119;41.718;21.786;2024-03-29T05:12:37;10.52;;;4.45;;
79646;SDS011;69119;41.718;21.786;2024-03-29T05:15:04;11.25;;;5.80;;
79646;SDS011;69119;41.718;21.786;2024-03-29T05:17:30;9.15;;;4.70;;
79646;SDS011;69119;41.718;21.786;2024-03-29T05:19:56;13.57;;;6.93;;
79646;SDS011;69119;41.718;21.786;2024-03-29T05:22:22;13.88;;;6.30;;
79646;SDS011;69119;41.718;21.786;2024-03-29T05:24:50;10.85;;;5.28;;
79646;SDS011;69119;41.718;21.786;2024-03-29T05:27:19;11.00;;;5.65;;
79646;SDS011;69119;41.718;21.786;2024-03-29T05:29:45;16.63;;;9.00;;
79646;SDS011;69119;41.718;21.786;2024-03-29T05:32:11;13.07;;;7.85;;
79646;SDS011;69119;41.718;21.786;2024-03-29T05:34:37;13.85;;;5.32;;
79646;SDS011;69119;41.718;21.786;2024-03-29T05:37:03;11.88;;;6.15;;
79646;SDS011;69119;41.718;21.786;2024-03-29T05:39:30;11.00;;;6.05;;
79646;SDS011;69119;41.718;21.786;2024-03-29T05:41:56;11.73;;;5.88;;
79646;SDS011;69119;41.718;21.786;2024-03-29T05:44:23;15.75;;;4.68;;
79646;SDS011;69119;41.718;21.786;2024-03-29T05:46:49;10.93;;;6.32;;
79646;SDS011;69119;41.718;21.786;2024-03-29T05:49:15;11.05;;;3.78;;
79646;SDS011;69119;41.718;21.786;2024-03-29T05:51:42;7.68;;;3.65;;
79646;SDS011;69119;41.718;21.786;2024-03-29T05:54:08;11.27;;;4.85;;
79646;SDS011;69119;41.718;21.786;2024-03-29T05:56:34;9.23;;;4.32;;
79646;SDS011;69119;41.718;21.786;2024-03-29T05:59:00;10.23;;;3.90;;
79646;SDS011;69119;41.718;21.786;2024-03-29T06:01:26;12.23;;;5.03;;
79646;SDS011;69119;41.718;21.786;2024-03-29T06:03:52;11.23;;;4.45;;
79646;SDS011;69119;41.718;21.786;2024-03-29T06:06:19;10.25;;;4.43;;
79646;SDS011;69119;41.718;21.786;2024-03-29T06:08:49;13.02;;;4.45;;
79646;SDS011;69119;41.718;21.786;2024-03-29T06:11:16;12.57;;;5.55;;
79646;SDS011;69119;41.718;21.786;2024-03-29T06:13:53;16.48;;;5.55;;
79646;SDS011;69119;41.718;21.786;2024-03-29T06:16:24;15.35;;;7.90;;
79646;SDS011;69119;41.718;21.786;2024-03-29T06:19:08;30.23;;;15.68;;
79646;SDS011;69119;41.718;21.786;2024-03-29T06:21:34;30.65;;;16.58;;
79646;SDS011;69119;41.718;21.786;2024-03-29T06:24:08;31.20;;;13.73;;
79646;SDS011;69119;41.718;21.786;2024-03-29T06:26:34;33.67;;;13.88;;
79646;SDS011;69119;41.718;21.786;2024-03-29T06:29:00;12.88;;;5.80;;
79646;SDS011;69119;41.718;21.786;2024-03-29T06:31:27;20.42;;;9.60;;
79646;SDS011;69119;41.718;21.786;2024-03-29T06:33:54;19.13;;;7.85;;
79646;SDS011;69119;41.718;21.786;2024-03-29T06:36:20;18.67;;;9.52;;
79646;SDS011;69119;41.718;21.786;2024-03-29T06:38:46;28.80;;;6.80;;
79646;SDS011;69119;41.718;21.786;2024-03-29T06:41:12;8.20;;;2.60;;
79646;SDS011;69119;41.718;21.786;2024-03-29T06:43:40;7.85;;;2.83;;
79646;SDS011;69119;41.718;21.786;2024-03-29T06:46:07;6.72;;;2.85;;
79646;SDS011;69119;41.718;21.786;2024-03-29T06:48:33;9.25;;;2.53;;
79646;SDS011;69119;41.718;21.786;2024-03-29T06:50:59;10.40;;;3.17;;
79646;SDS011;69119;41.718;21.786;2024-03-29T06:53:25;14.13;;;4.25;;
79646;SDS011;69119;41.718;21.786;2024-03-29T06:55:51;11.15;;;3.75;;
79646;SDS011;69119;41.718;21.786;2024-03-29T06:58:17;10.32;;;4.60;;
79646;SDS011;69119;41.718;21.786;2024-03-29T07:00:45;7.53;;;2.65;;
79646;SDS011;69119;41.718;21.786;2024-03-29T07:03:11;7.53;;;2.20;;
79646;SDS011;69119;41.718;21.786;2024-03-29T07:05:37;8.32;;;2.83;;
79646;SDS011;69119;41.718;21.786;2024-03-29T07:08:03;8.95;;;3.00;;
79646;SDS011;69119;41.718;21.786;2024-03-29T07:10:29;9.10;;;2.30;;
79646;SDS011;69119;41.718;21.786;2024-03-29T07:12:56;7.72;;;2.90;;
79646;SDS011;69119;41.718;21.786;2024-03-29T07:15:22;11.02;;;3.20;;
79646;SDS011;69119;41.718;21.786;2024-03-29T07:17:48;8.95;;;2.88;;
79646;SDS011;69119;41.718;21.786;2024-03-29T07:20:16;7.90;;;2.75;;
79646;SDS011;69119;41.718;21.786;2024-03-29T07:22:42;8.73;;;3.38;;
79646;SDS011;69119;41.718;21.786;2024-03-29T07:25:10;8.07;;;3.03;;
79646;SDS011;69119;41.718;21.786;2024-03-29T07:27:36;10.25;;;5.13;;
79646;SDS011;69119;41.718;21.786;2024-03-29T07:30:02;9.82;;;2.65;;
79646;SDS011;69119;41.718;21.786;2024-03-29T07:32:33;8.93;;;3.08;;
79646;SDS011;69119;41.718;21.786;2024-03-29T07:35:00;26.50;;;4.72;;
79646;SDS011;69119;41.718;21.786;2024-03-29T07:37:27;8.73;;;2.95;;
79646;SDS011;69119;41.718;21.786;2024-03-29T07:39:53;9.23;;;3.92;;
79646;SDS011;69119;41.718;21.786;2024-03-29T07:42:19;8.80;;;2.85;;
79646;SDS011;69119;41.718;21.786;2024-03-29T07:44:47;9.18;;;2.92;;
79646;SDS011;69119;41.718;21.786;2024-03-29T07:49:39;10.38;;;3.60;;
79646;SDS011;69119;41.718;21.786;2024-03-29T07:52:05;9.70;;;3.17;;
79646;SDS011;69119;41.718;21.786;2024-03-29T07:54:33;10.00;;;3.67;;
79646;SDS011;69119;41.718;21.786;2024-03-29T07:59:26;12.05;;;4.40;;
79646;SDS011;69119;41.718;21.786;2024-03-29T08:01:52;8.85;;;2.92;;
79646;SDS011;69119;41.718;21.786;2024-03-29T08:04:19;10.95;;;3.03;;
79646;SDS011;69119;41.718;21.786;2024-03-29T08:06:46;7.03;;;2.05;;
79646;SDS011;69119;41.718;21.786;2024-03-29T08:09:12;6.65;;;2.17;;
79646;SDS011;69119;41.718;21.786;2024-03-29T08:11:39;7.32;;;2.30;;
79646;SDS011;69119;41.718;21.786;2024-03-29T08:14:05;8.65;;;1.90;;
79646;SDS011;69119;41.718;21.786;2024-03-29T08:16:32;7.05;;;1.90;;
79646;SDS011;69119;41.718;21.786;2024-03-29T08:18:58;8.35;;;2.10;;
79646;SDS011;69119;41.718;21.786;2024-03-29T08:23:52;10.48;;;2.13;;
79646;SDS011;69119;41.718;21.786;2024-03-29T08:26:24;8.40;;;2.10;;
79646;SDS011;69119;41.718;21.786;2024-03-29T08:28:50;7.15;;;2.05;;
79646;SDS011;69119;41.718;21.786;2024-03-29T08:31:16;7.88;;;2.55;;
79646;SDS011;69119;41.718;21.786;2024-03-29T08:33:44;8.63;;;2.45;;
79646;SDS011;69119;41.718;21.786;2024-03-29T08:36:11;8.25;;;4.75;;
79646;SDS011;69119;41.718;21.786;2024-03-29T08:38:37;6.32;;;2.22;;
79646;SDS011;69119;41.718;21.786;2024-03-29T08:41:08;7.95;;;3.30;;
79646;SDS011;69119;41.718;21.786;2024-03-29T08:43:34;6.85;;;2.38;;
79646;SDS011;69119;41.718;21.786;2024-03-29T08:46:01;6.75;;;2.30;;
79646;SDS011;69119;41.718;21.786;2024-03-29T08:48:27;8.27;;;2.50;;
79646;SDS011;69119;41.718;21.786;2024-03-29T08:50:53;6.25;;;1.90;;
79646;SDS011;69119;41.718;21.786;2024-03-29T08:53:19;10.27;;;3.95;;
79646;SDS011;69119;41.718;21.786;2024-03-29T08:55:47;6.95;;;2.20;;
79646;SDS011;69119;41.718;21.786;2024-03-29T08:58:16;8.48;;;2.30;;
79646;SDS011;69119;41.718;21.786;2024-03-29T09:00:51;10.25;;;3.15;;
79646;SDS011;69119;41.718;21.786;2024-03-29T09:03:17;7.10;;;2.33;;
79646;SDS011;69119;41.718;21.786;2024-03-29T09:05:44;6.18;;;2.13;;
79646;SDS011;69119;41.718;21.786;2024-03-29T09:08:10;8.50;;;2.38;;
79646;SDS011;69119;41.718;21.786;2024-03-29T09:10:36;8.07;;;2.58;;
79646;SDS011;69119;41.718;21.786;2024-03-29T09:13:02;7.63;;;2.92;;
79646;SDS011;69119;41.718;21.786;2024-03-29T09:15:28;6.20;;;2.17;;
79646;SDS011;69119;41.718;21.786;2024-03-29T09:17:54;6.28;;;1.52;;
79646;SDS011;69119;41.718;21.786;2024-03-29T09:20:20;6.18;;;1.77;;
79646;SDS011;69119;41.718;21.786;2024-03-29T09:22:46;5.80;;;2.03;;
79646;SDS011;69119;41.718;21.786;2024-03-29T09:25:15;5.95;;;1.38;;
79646;SDS011;69119;41.718;21.786;2024-03-29T09:27:41;6.32;;;1.20;;
79646;SDS011;69119;41.718;21.786;2024-03-29T09:30:08;5.32;;;1.10;;
79646;SDS011;69119;41.718;21.786;2024-03-29T09:32:35;7.32;;;1.70;;
79646;SDS011;69119;41.718;21.786;2024-03-29T09:35:01;7.32;;;2.00;;
79646;SDS011;69119;41.718;21.786;2024-03-29T09:37:27;8.57;;;2.05;;
79646;SDS011;69119;41.718;21.786;2024-03-29T09:39:53;5.72;;;1.75;;
79646;SDS011;69119;41.718;21.786;2024-03-29T09:42:20;6.20;;;1.38;;
79646;SDS011;69119;41.718;21.786;2024-03-29T09:44:47;7.40;;;2.13;;
79646;SDS011;69119;41.718;21.786;2024-03-29T09:47:17;5.72;;;1.45;;
79646;SDS011;69119;41.718;21.786;2024-03-29T09:49:44;6.72;;;2.08;;
79646;SDS011;69119;41.718;21.786;2024-03-29T09:52:10;4.97;;;1.40;;
79646;SDS011;69119;41.718;21.786;2024-03-29T09:54:38;5.13;;;0.90;;
79646;SDS011;69119;41.718;21.786;2024-03-29T09:57:04;6.63;;;1.65;;
79646;SDS011;69119;41.718;21.786;2024-03-29T09:59:30;5.43;;;1.40;;
79646;SDS011;69119;41.718;21.786;2024-03-29T10:01:56;5.50;;;1.17;;
79646;SDS011;69119;41.718;21.786;2024-03-29T10:04:24;5.38;;;1.08;;
79646;SDS011;69119;41.718;21.786;2024-03-29T10:06:51;8.48;;;1.65;;
79646;SDS011;69119;41.718;21.786;2024-03-29T10:09:17;5.22;;;1.50;;
79646;SDS011;69119;41.718;21.786;2024-03-29T10:11:44;6.53;;;2.75;;
79646;SDS011;69119;41.718;21.786;2024-03-29T10:14:10;5.75;;;1.40;;
79646;SDS011;69119;41.718;21.786;2024-03-29T10:16:36;7.43;;;1.88;;
79646;SDS011;69119;41.718;21.786;2024-03-29T10:19:03;5.57;;;1.55;;
79646;SDS011;69119;41.718;21.786;2024-03-29T10:21:29;5.07;;;1.08;;
79646;SDS011;69119;41.718;21.786;2024-03-29T10:23:55;4.82;;;1.42;;
79646;SDS011;69119;41.718;21.786;2024-03-29T10:29:15;6.40;;;0.95;;
79646;SDS011;69119;41.718;21.786;2024-03-29T10:31:41;7.55;;;1.25;;
79646;SDS011;69119;41.718;21.786;2024-03-29T10:34:07;6.43;;;1.80;;
79646;SDS011;69119;41.718;21.786;2024-03-29T10:36:36;5.85;;;1.23;;
79646;SDS011;69119;41.718;21.786;2024-03-29T10:39:11;6.50;;;1.02;;
79646;SDS011;69119;41.718;21.786;2024-03-29T10:41:41;6.28;;;0.95;;
79646;SDS011;69119;41.718;21.786;2024-03-29T10:44:10;6.68;;;1.27;;
79646;SDS011;69119;41.718;21.786;2024-03-29T10:46:37;4.75;;;1.55;;
79646;SDS011;69119;41.718;21.786;2024-03-29T10:49:05;6.00;;;0.70;;
79646;SDS011;69119;41.718;21.786;2024-03-29T10:51:34;6.18;;;1.25;;
79646;SDS011;69119;41.718;21.786;2024-03-29T10:54:00;6.68;;;1.13;;
79646;SDS011;69119;41.718;21.786;2024-03-29T10:56:29;4.80;;;0.85;;
79646;SDS011;69119;41.718;21.786;2024-03-29T10:58:56;3.65;;;0.50;;
79646;SDS011;69119;41.718;21.786;2024-03-29T11:01:27;4.43;;;1.17;;
79646;SDS011;69119;41.718;21.786;2024-03-29T11:03:54;5.00;;;0.50;;
79646;SDS011;69119;41.718;21.786;2024-03-29T11:06:23;4.70;;;0.73;;
79646;SDS011;69119;41.718;21.786;2024-03-29T11:08:52;4.57;;;0.75;;
79646;SDS011;69119;41.718;21.786;2024-03-29T11:11:20;4.00;;;0.52;;
79646;SDS011;69119;41.718;21.786;2024-03-29T11:16:19;4.88;;;1.73;;
79646;SDS011;69119;41.718;21.786;2024-03-29T11:18:45;5.35;;;0.90;;
79646;SDS011;69119;41.718;21.786;2024-03-29T11:21:12;5.93;;;0.82;;
79646;SDS011;69119;41.718;21.786;2024-03-29T11:23:47;4.65;;;0.80;;
79646;SDS011;69119;41.718;21.786;2024-03-29T11:26:14;5.82;;;0.80;;
79646;SDS011;69119;41.718;21.786;2024-03-29T11:28:40;4.15;;;0.68;;
79646;SDS011;69119;41.718;21.786;2024-03-29T11:31:08;5.22;;;1.05;;
79646;SDS011;69119;41.718;21.786;2024-03-29T11:38:41;5.68;;;1.02;;
79646;SDS011;69119;41.718;21.786;2024-03-29T11:41:11;5.32;;;1.45;;
79646;SDS011;69119;41.718;21.786;2024-03-29T11:43:37;4.25;;;0.77;;
79646;SDS011;69119;41.718;21.786;2024-03-29T11:46:05;4.10;;;0.60;;
79646;SDS011;69119;41.718;21.786;2024-03-29T11:48:32;4.88;;;0.52;;
79646;SDS011;69119;41.718;21.786;2024-03-29T11:50:58;4.28;;;0.60;;
79646;SDS011;69119;41.718;21.786;2024-03-29T11:53:24;4.53;;;0.80;;
79646;SDS011;69119;41.718;21.786;2024-03-29T11:55:52;5.95;;;1.10;;
79646;SDS011;69119;41.718;21.786;2024-03-29T11:58:25;4.18;;;0.60;;
79646;SDS011;69119;41.718;21.786;2024-03-29T12:00:52;5.55;;;0.73;;
79646;SDS011;69119;41.718;21.786;2024-03-29T12:03:18;5.68;;;0.60;;
79646;SDS011;69119;41.718;21.786;2024-03-29T12:05:46;4.90;;;0.90;;
79646;SDS011;69119;41.718;21.786;2024-03-29T12:08:13;5.28;;;1.10;;
79646;SDS011;69119;41.718;21.786;2024-03-29T12:10:39;4.25;;;0.68;;
79646;SDS011;69119;41.718;21.786;2024-03-29T12:13:05;5.82;;;1.13;;
79646;SDS011;69119;41.718;21.786;2024-03-29T12:15:32;3.25;;;0.55;;
79646;SDS011;69119;41.718;21.786;2024-03-29T12:17:59;3.78;;;0.40;;
79646;SDS011;69119;41.718;21.786;2024-03-29T12:20:26;3.78;;;0.50;;
79646;SDS011;69119;41.718;21.786;2024-03-29T12:22:54;3.55;;;0.47;;
79646;SDS011;69119;41.718;21.786;2024-03-29T12:27:47;3.63;;;0.60;;
79646;SDS011;69119;41.718;21.786;2024-03-29T12:30:13;3.65;;;0.40;;
79646;SDS011;69119;41.718;21.786;2024-03-29T12:32:40;6.30;;;1.25;;
79646;SDS011;69119;41.718;21.786;2024-03-29T12:35:13;3.90;;;0.95;;
79646;SDS011;69119;41.718;21.786;2024-03-29T12:37:47;3.80;;;0.47;;
79646;SDS011;69119;41.718;21.786;2024-03-29T12:40:15;3.70;;;0.50;;
79646;SDS011;69119;41.718;21.786;2024-03-29T12:42:47;4.03;;;0.50;;
79646;SDS011;69119;41.718;21.786;2024-03-29T12:45:13;3.13;;;0.40;;
79646;SDS011;69119;41.718;21.786;2024-03-29T12:50:05;3.95;;;1.77;;
79646;SDS011;69119;41.718;21.786;2024-03-29T12:52:41;2.90;;;0.50;;
79646;SDS011;69119;41.718;21.786;2024-03-29T12:55:07;4.70;;;0.50;;
79646;SDS011;69119;41.718;21.786;2024-03-29T12:57:35;3.63;;;0.40;;
79646;SDS011;69119;41.718;21.786;2024-03-29T13:00:01;4.90;;;1.23;;
79646;SDS011;69119;41.718;21.786;2024-03-29T13:02:28;5.05;;;0.60;;
79646;SDS011;69119;41.718;21.786;2024-03-29T13:07:21;3.05;;;0.32;;
79646;SDS011;69119;41.718;21.786;2024-03-29T13:12:13;2.40;;;0.35;;
79646;SDS011;69119;41.718;21.786;2024-03-29T13:17:05;3.85;;;0.68;;
79646;SDS011;69119;41.718;21.786;2024-03-29T13:19:31;4.38;;;0.60;;
79646;SDS011;69119;41.718;21.786;2024-03-29T13:21:58;3.75;;;0.60;;
79646;SDS011;69119;41.718;21.786;2024-03-29T13:26:50;1.60;;;0.22;;
79646;SDS011;69119;41.718;21.786;2024-03-29T13:29:17;4.90;;;1.63;;
79646;SDS011;69119;41.718;21.786;2024-03-29T13:34:09;5.25;;;0.80;;
79646;SDS011;69119;41.718;21.786;2024-03-29T13:36:40;3.88;;;1.35;;
79646;SDS011;69119;41.718;21.786;2024-03-29T13:39:09;3.42;;;0.40;;
79646;SDS011;69119;41.718;21.786;2024-03-29T13:41:38;5.53;;;0.55;;
79646;SDS011;69119;41.718;21.786;2024-03-29T13:44:05;3.92;;;0.70;;
79646;SDS011;69119;41.718;21.786;2024-03-29T13:46:35;4.53;;;0.85;;
79646;SDS011;69119;41.718;21.786;2024-03-29T13:49:01;3.90;;;0.50;;
79646;SDS011;69119;41.718;21.786;2024-03-29T13:51:31;4.68;;;0.90;;
79646;SDS011;69119;41.718;21.786;2024-03-29T13:56:23;5.38;;;0.93;;
79646;SDS011;69119;41.718;21.786;2024-03-29T14:01:16;3.72;;;0.90;;
79646;SDS011;69119;41.718;21.786;2024-03-29T14:03:43;4.68;;;0.70;;
79646;SDS011;69119;41.718;21.786;2024-03-29T14:08:34;3.53;;;0.52;;
79646;SDS011;69119;41.718;21.786;2024-03-29T14:13:27;6.03;;;0.80;;
79646;SDS011;69119;41.718;21.786;2024-03-29T14:18:19;5.95;;;0.98;;
79646;SDS011;69119;41.718;21.786;2024-03-29T14:20:45;6.28;;;0.90;;
79646;SDS011;69119;41.718;21.786;2024-03-29T14:25:40;4.03;;;0.40;;
79646;SDS011;69119;41.718;21.786;2024-03-29T14:28:06;4.68;;;0.77;;
79646;SDS011;69119;41.718;21.786;2024-03-29T14:30:32;4.13;;;0.65;;
79646;SDS011;69119;41.718;21.786;2024-03-29T14:32:59;4.38;;;0.75;;
79646;SDS011;69119;41.718;21.786;2024-03-29T14:35:31;6.53;;;1.80;;
79646;SDS011;69119;41.718;21.786;2024-03-29T14:37:57;4.18;;;0.77;;
79646;SDS011;69119;41.718;21.786;2024-03-29T14:40:24;4.25;;;0.60;;
79646;SDS011;69119;41.718;21.786;2024-03-29T14:42:52;4.18;;;0.60;;
79646;SDS011;69119;41.718;21.786;2024-03-29T14:45:23;2.53;;;0.60;;
79646;SDS011;69119;41.718;21.786;2024-03-29T14:50:15;4.18;;;1.15;;
79646;SDS011;69119;41.718;21.786;2024-03-29T14:52:43;4.03;;;0.65;;
79646;SDS011;69119;41.718;21.786;2024-03-29T14:57:35;4.43;;;0.63;;
79646;SDS011;69119;41.718;21.786;2024-03-29T15:02:27;3.03;;;0.40;;
79646;SDS011;69119;41.718;21.786;2024-03-29T15:04:53;4.57;;;0.60;;
79646;SDS011;69119;41.718;21.786;2024-03-29T15:07:19;5.22;;;0.70;;
79646;SDS011;69119;41.718;21.786;2024-03-29T15:09:45;5.35;;;1.15;;
79646;SDS011;69119;41.718;21.786;2024-03-29T15:12:15;2.83;;;0.40;;
79646;SDS011;69119;41.718;21.786;2024-03-29T15:14:41;2.63;;;0.47;;
79646;SDS011;69119;41.718;21.786;2024-03-29T15:17:07;4.72;;;2.03;;
79646;SDS011;69119;41.718;21.786;2024-03-29T15:19:33;3.03;;;0.43;;
79646;SDS011;69119;41.718;21.786;2024-03-29T15:21:59;4.03;;;0.80;;
79646;SDS011;69119;41.718;21.786;2024-03-29T15:26:51;7.72;;;1.73;;
79646;SDS011;69119;41.718;21.786;2024-03-29T15:29:23;6.80;;;1.88;;
79646;SDS011;69119;41.718;21.786;2024-03-29T15:31:49;7.55;;;1.33;;
79646;SDS011;69119;41.718;21.786;2024-03-29T15:34:15;4.45;;;0.63;;
79646;SDS011;69119;41.718;21.786;2024-03-29T15:36:41;7.43;;;1.45;;
79646;SDS011;69119;41.718;21.786;2024-03-29T15:39:07;6.57;;;0.90;;
79646;SDS011;69119;41.718;21.786;2024-03-29T15:41:34;4.53;;;1.05;;
79646;SDS011;69119;41.718;21.786;2024-03-29T15:44:00;6.60;;;1.17;;
79646;SDS011;69119;41.718;21.786;2024-03-29T15:46:27;4.90;;;1.08;;